createdAt,value
2022-09-30T00:01:51.351Z,6.93
2022-09-30T00:04:21.302Z,6.96
2022-09-30T00:06:51.821Z,6.98
2022-09-30T00:09:21.653Z,6.99
2022-09-30T00:11:49.562Z,6.98
2022-09-30T00:14:20.451Z,6.98
2022-09-30T00:16:48.489Z,6.90
2022-09-30T00:19:16.442Z,6.92
2022-09-30T00:21:44.625Z,6.98
2022-09-30T00:24:14.010Z,6.95
2022-09-30T00:26:41.819Z,6.96
2022-09-30T00:29:11.044Z,7.04
2022-09-30T00:31:39.639Z,7.05
2022-09-30T00:34:11.389Z,6.99
2022-09-30T00:36:44.172Z,6.92
2022-09-30T00:39:16.125Z,6.82
2022-09-30T00:41:44.969Z,6.83
2022-09-30T00:44:55.489Z,6.79
2022-09-30T00:47:34.722Z,6.75
2022-09-30T00:50:05.983Z,6.60
2022-09-30T00:52:34.911Z,6.49
2022-09-30T00:55:10.548Z,6.52
2022-09-30T00:57:38.416Z,6.61
2022-09-30T01:00:07.715Z,6.60
2022-09-30T01:02:36.388Z,6.54
2022-09-30T01:05:04.678Z,6.54
2022-09-30T01:07:32.693Z,6.39
2022-09-30T01:10:01.997Z,6.43
2022-09-30T01:12:31.364Z,6.39
2022-09-30T01:15:00.836Z,6.42
2022-09-30T01:17:42.123Z,6.33
2022-09-30T01:20:36.823Z,6.38
2022-09-30T01:23:29.351Z,6.33
2022-09-30T01:26:24.791Z,6.45
2022-09-30T01:29:26.705Z,6.30
2022-09-30T01:32:02.534Z,6.24
2022-09-30T01:34:39.678Z,6.16
2022-09-30T01:37:15.643Z,6.11
2022-09-30T01:39:56.561Z,6.11
2022-09-30T01:42:29.248Z,6.07
2022-09-30T01:45:07.750Z,6.04
2022-09-30T01:47:44.410Z,6.04
2022-09-30T01:50:19.007Z,5.95
2022-09-30T01:52:54.291Z,6.00
2022-09-30T01:55:28.581Z,5.86
2022-09-30T01:58:02.780Z,5.88
2022-09-30T02:00:35.013Z,5.82
2022-09-30T02:03:10.386Z,5.83
2022-09-30T02:05:42.577Z,5.82
2022-09-30T02:08:16.722Z,5.84
2022-09-30T02:10:51.691Z,5.80
2022-09-30T02:13:26.543Z,5.71
2022-09-30T02:16:00.378Z,5.62
2022-09-30T02:18:37.002Z,5.74
2022-09-30T02:21:08.129Z,5.74
2022-09-30T02:23:41.825Z,5.83
2022-09-30T02:26:16.167Z,5.82
2022-09-30T02:28:48.613Z,5.76
2022-09-30T02:31:19.568Z,5.67
2022-09-30T02:33:54.302Z,5.69
2022-09-30T02:36:27.615Z,5.66
2022-09-30T02:39:01.916Z,5.64
2022-09-30T02:41:34.510Z,5.52
2022-09-30T02:44:03.691Z,5.62
2022-09-30T02:46:44.701Z,5.66
2022-09-30T02:49:22.397Z,5.63
2022-09-30T02:52:03.789Z,5.59
2022-09-30T02:54:36.145Z,5.44
2022-09-30T02:57:15.830Z,5.43
2022-09-30T02:59:43.826Z,5.51
2022-09-30T03:02:11.880Z,5.49
2022-09-30T03:04:43.704Z,5.27
2022-09-30T03:07:12.320Z,5.36
2022-09-30T03:09:40.640Z,5.34
2022-09-30T03:12:19.748Z,5.21
2022-09-30T03:15:21.107Z,5.22
2022-09-30T03:18:04.973Z,5.30
2022-09-30T03:20:47.012Z,5.24
2022-09-30T03:23:29.979Z,5.28
2022-09-30T03:26:04.335Z,5.29
2022-09-30T03:28:36.765Z,5.29
2022-09-30T03:31:13.260Z,5.29
2022-09-30T03:33:52.255Z,5.26
2022-09-30T03:36:29.453Z,5.14
2022-09-30T03:39:03.239Z,5.10
2022-09-30T03:41:36.606Z,5.00
2022-09-30T03:44:11.848Z,5.01
2022-09-30T03:46:44.467Z,5.02
2022-09-30T03:49:17.823Z,4.91
2022-09-30T03:51:50.772Z,4.89
2022-09-30T03:54:19.387Z,4.86
2022-09-30T03:56:48.464Z,4.80
2022-09-30T03:59:23.575Z,4.93
2022-09-30T04:01:51.756Z,4.99
2022-09-30T04:04:19.829Z,4.99
2022-09-30T04:06:48.977Z,5.05
2022-09-30T04:09:16.996Z,5.04
2022-09-30T04:11:44.918Z,4.99
2022-09-30T04:14:12.738Z,5.04
2022-09-30T04:16:40.684Z,5.05
2022-09-30T04:19:08.554Z,4.98
2022-09-30T04:21:36.430Z,4.85
2022-09-30T04:24:06.024Z,4.83
2022-09-30T04:26:33.930Z,4.90
2022-09-30T04:29:02.027Z,4.82
2022-09-30T04:31:29.996Z,4.85
2022-09-30T04:33:58.189Z,4.83
2022-09-30T04:36:26.073Z,4.79
2022-09-30T04:38:53.964Z,4.73
2022-09-30T04:41:23.486Z,4.62
2022-09-30T04:43:51.328Z,4.66
2022-09-30T04:46:22.541Z,4.71
2022-09-30T04:48:51.348Z,4.60
2022-09-30T04:51:21.027Z,4.41
2022-09-30T04:53:50.050Z,4.61
2022-09-30T04:56:18.272Z,4.65
2022-09-30T04:58:47.493Z,4.50
2022-09-30T05:01:17.207Z,4.53
2022-09-30T05:03:45.808Z,4.60
2022-09-30T05:06:14.513Z,4.57
2022-09-30T05:08:46.117Z,4.49
2022-09-30T05:11:17.475Z,4.65
2022-09-30T05:13:47.303Z,4.60
2022-09-30T05:16:16.201Z,4.53
2022-09-30T05:18:46.106Z,4.69
2022-09-30T05:21:14.475Z,4.65
2022-09-30T05:23:42.353Z,4.60
2022-09-30T05:26:12.543Z,4.61
2022-09-30T05:28:40.867Z,4.63
2022-09-30T05:31:12.217Z,4.61
2022-09-30T05:33:41.834Z,4.61
2022-09-30T05:36:14.234Z,4.60
2022-09-30T05:38:42.165Z,4.65
2022-09-30T05:41:11.912Z,4.75
2022-09-30T05:43:41.020Z,4.78
2022-09-30T05:46:10.251Z,4.73
2022-09-30T05:48:38.010Z,4.78
2022-09-30T05:51:06.095Z,4.79
2022-09-30T05:53:38.221Z,4.82
2022-09-30T05:56:07.403Z,4.92
2022-09-30T05:58:35.370Z,4.91
2022-09-30T06:01:13.172Z,5.01
2022-09-30T06:03:44.188Z,5.09
2022-09-30T06:06:12.991Z,5.17
2022-09-30T06:08:41.484Z,5.21
2022-09-30T06:11:13.024Z,5.23
2022-09-30T06:13:42.133Z,5.33
2022-09-30T06:16:11.992Z,5.38
2022-09-30T06:18:41.615Z,5.55
2022-09-30T06:21:13.689Z,5.58
2022-09-30T06:23:42.220Z,5.58
2022-09-30T06:26:13.445Z,5.66
2022-09-30T06:28:42.123Z,5.71
2022-09-30T06:31:10.181Z,5.80
2022-09-30T06:33:42.514Z,5.95
2022-09-30T06:36:11.983Z,6.02
2022-09-30T06:38:40.413Z,6.00
2022-09-30T06:41:09.544Z,6.11
2022-09-30T06:43:46.179Z,6.26
2022-09-30T06:46:29.857Z,6.39
2022-09-30T06:49:10.386Z,6.40
2022-09-30T06:51:42.153Z,6.49
2022-09-30T06:54:11.153Z,6.59
2022-09-30T06:56:39.042Z,6.63
2022-09-30T06:59:07.094Z,6.62
2022-09-30T07:01:35.089Z,6.68
2022-09-30T07:04:09.565Z,6.75
2022-09-30T07:06:39.031Z,6.80
2022-09-30T07:09:10.248Z,6.82
2022-09-30T07:11:38.987Z,6.97
2022-09-30T07:14:07.620Z,7.06
2022-09-30T07:16:35.590Z,7.01
2022-09-30T07:19:04.387Z,7.06
2022-09-30T07:21:32.797Z,6.92
2022-09-30T07:24:01.208Z,7.28
2022-09-30T07:26:31.142Z,7.30
2022-09-30T07:29:04.567Z,7.35
2022-09-30T07:31:34.623Z,7.46
2022-09-30T07:34:04.210Z,7.53
2022-09-30T07:36:33.897Z,7.57
2022-09-30T07:39:07.432Z,7.68
2022-09-30T07:41:40.340Z,7.81
2022-09-30T07:44:13.412Z,7.78
2022-09-30T07:46:43.445Z,7.98
2022-09-30T07:49:15.332Z,7.98
2022-09-30T07:51:47.449Z,8.09
2022-09-30T07:54:18.716Z,8.19
2022-09-30T07:57:09.209Z,8.28
2022-09-30T07:59:40.292Z,8.55
2022-09-30T08:02:14.133Z,8.48
2022-09-30T08:04:44.214Z,8.53
2022-09-30T08:07:14.550Z,8.78
2022-09-30T08:09:44.090Z,8.89
2022-09-30T08:12:16.178Z,9.06
2022-09-30T08:14:45.781Z,9.04
2022-09-30T08:17:15.161Z,9.23
2022-09-30T08:19:44.913Z,9.22
2022-09-30T08:22:14.358Z,9.17
2022-09-30T08:24:42.855Z,9.39
2022-09-30T08:27:12.618Z,9.45
2022-09-30T08:30:01.164Z,9.57
2022-09-30T08:32:32.043Z,9.84
2022-09-30T08:35:00.933Z,9.89
2022-09-30T08:37:29.271Z,9.94
2022-09-30T08:40:02.784Z,10.09
2022-09-30T08:42:51.803Z,10.21
2022-09-30T08:45:34.243Z,10.16
2022-09-30T08:50:55.219Z,10.35
2022-09-30T08:53:38.751Z,10.45
2022-09-30T08:56:08.591Z,10.63
2022-09-30T08:58:40.504Z,10.64
2022-09-30T09:01:20.439Z,10.77
2022-09-30T09:03:51.904Z,10.79
2022-09-30T09:06:32.995Z,10.72
2022-09-30T09:09:20.192Z,10.80
2022-09-30T09:12:02.811Z,11.03
2022-09-30T09:14:45.947Z,11.23
2022-09-30T09:17:29.973Z,11.13
2022-09-30T09:20:04.187Z,11.20
2022-09-30T09:22:34.473Z,11.32
2022-09-30T09:25:04.347Z,11.27
2022-09-30T09:27:45.069Z,11.55
2022-09-30T09:30:16.520Z,11.62
2022-09-30T09:32:52.221Z,11.73
2022-09-30T09:35:35.212Z,11.68
2022-09-30T09:38:28.535Z,11.69
2022-09-30T09:41:09.244Z,11.47
2022-09-30T09:43:51.045Z,11.71
2022-09-30T09:46:25.637Z,12.17
2022-09-30T09:49:29.136Z,12.32
2022-09-30T09:52:15.580Z,12.28
2022-09-30T09:54:45.466Z,12.46
2022-09-30T09:57:17.849Z,12.32
2022-09-30T09:59:58.438Z,12.60
2022-09-30T10:06:15.742Z,12.85
2022-09-30T10:08:55.905Z,12.80
2022-09-30T10:11:26.626Z,13.20
2022-09-30T10:13:58.510Z,13.11
2022-09-30T10:16:33.059Z,13.23
2022-09-30T10:19:05.981Z,13.24
2022-09-30T10:21:38.524Z,13.35
2022-09-30T10:24:21.414Z,13.67
2022-09-30T10:26:51.069Z,13.65
2022-09-30T10:29:31.982Z,13.92
2022-09-30T10:32:01.886Z,13.85
2022-09-30T10:34:34.605Z,14.19
2022-09-30T10:37:16.934Z,14.34
2022-09-30T10:39:53.242Z,14.31
2022-09-30T10:42:26.638Z,14.42
2022-09-30T10:44:58.682Z,14.25
2022-09-30T10:47:31.405Z,14.50
2022-09-30T10:50:07.776Z,14.45
2022-09-30T10:52:45.347Z,14.65
2022-09-30T10:55:29.595Z,14.69
2022-09-30T10:58:05.913Z,14.58
2022-09-30T11:00:34.866Z,14.76
2022-09-30T11:03:09.233Z,14.94
2022-09-30T11:05:41.361Z,14.58
2022-09-30T11:08:19.440Z,14.83
2022-09-30T11:10:58.171Z,15.01
2022-09-30T11:13:31.652Z,15.22
2022-09-30T11:16:06.647Z,15.15
2022-09-30T11:18:41.041Z,15.06
2022-09-30T11:21:17.423Z,15.12
2022-09-30T11:23:54.281Z,15.16
2022-09-30T11:26:32.290Z,15.18
2022-09-30T11:29:17.024Z,15.12
2022-09-30T11:31:53.063Z,15.42
2022-09-30T11:34:41.729Z,15.59
2022-09-30T11:37:21.104Z,15.60
2022-09-30T11:40:18.720Z,15.47
2022-09-30T11:42:56.891Z,15.74
2022-09-30T11:45:35.110Z,16.26
2022-09-30T11:48:19.671Z,16.33
2022-09-30T11:50:58.959Z,16.16
2022-09-30T11:53:39.506Z,16.22
2022-09-30T11:56:20.369Z,16.04
2022-09-30T11:58:51.815Z,16.70
2022-09-30T12:01:29.125Z,17.04
2022-09-30T12:04:05.576Z,16.28
2022-09-30T12:06:39.382Z,16.41
2022-09-30T12:09:16.013Z,16.99
2022-09-30T12:11:51.858Z,16.86
2022-09-30T12:14:37.583Z,16.86
2022-09-30T12:17:13.627Z,16.21
2022-09-30T12:19:48.557Z,16.12
2022-09-30T12:22:21.880Z,16.19
2022-09-30T12:24:49.824Z,16.42
2022-09-30T12:27:26.424Z,16.55
2022-09-30T12:30:20.376Z,17.02
2022-09-30T12:33:26.456Z,17.34
2022-09-30T12:36:24.060Z,16.67
2022-09-30T12:39:15.597Z,16.81
2022-09-30T12:42:01.157Z,16.63
2022-09-30T12:45:00.634Z,16.58
2022-09-30T12:47:36.564Z,16.51
2022-09-30T12:50:10.151Z,16.91
2022-09-30T12:52:39.367Z,17.11
2022-09-30T12:55:13.991Z,17.65
2022-09-30T12:57:44.560Z,17.61
2022-09-30T13:00:19.659Z,17.96
2022-09-30T13:02:55.345Z,17.44
2022-09-30T13:05:51.869Z,17.03
2022-09-30T13:08:47.498Z,16.58
2022-09-30T13:11:37.854Z,16.41
2022-09-30T13:14:26.510Z,16.99
2022-09-30T13:17:23.753Z,17.05
2022-09-30T13:19:53.656Z,16.98
2022-09-30T13:23:06.246Z,16.86
2022-09-30T13:25:59.972Z,16.08
2022-09-30T13:28:32.425Z,15.99
2022-09-30T13:31:33.920Z,16.30
2022-09-30T13:34:23.101Z,16.42
2022-09-30T13:37:00.356Z,16.62
2022-09-30T13:39:31.803Z,16.59
2022-09-30T13:42:24.693Z,16.44
2022-09-30T13:47:53.105Z,17.20
2022-09-30T13:50:28.232Z,17.78
2022-09-30T13:53:01.036Z,17.55
2022-09-30T13:55:36.656Z,17.67
2022-09-30T13:58:25.469Z,18.04
2022-09-30T14:00:59.532Z,17.45
2022-09-30T14:03:47.501Z,17.08
2022-09-30T14:06:28.481Z,16.96
2022-09-30T14:09:12.685Z,17.00
2022-09-30T14:12:09.466Z,17.00
2022-09-30T14:15:24.678Z,17.62
2022-09-30T14:18:37.019Z,17.73
2022-09-30T14:21:21.606Z,17.19
2022-09-30T14:24:00.530Z,17.33
2022-09-30T14:27:16.919Z,17.33
2022-09-30T14:29:53.772Z,17.04
2022-09-30T14:32:29.400Z,16.97
2022-09-30T14:34:59.536Z,17.03
2022-09-30T14:37:35.447Z,17.19
2022-09-30T14:40:13.677Z,17.06
2022-09-30T14:42:44.552Z,17.04
2022-09-30T14:45:21.671Z,17.17
2022-09-30T14:47:52.763Z,17.21
2022-09-30T14:50:26.220Z,17.29
2022-09-30T14:52:56.984Z,17.20
2022-09-30T14:55:30.726Z,17.37
2022-09-30T14:58:22.953Z,18.79
2022-09-30T15:00:58.039Z,22.74
2022-09-30T15:03:27.094Z,23.76
2022-09-30T15:05:55.536Z,24.19
2022-09-30T15:08:24.348Z,23.31
2022-09-30T15:10:56.566Z,22.72
2022-09-30T15:13:27.912Z,22.00
2022-09-30T15:15:56.281Z,21.80
2022-09-30T15:18:30.479Z,22.38
2022-09-30T15:21:00.789Z,22.79
2022-09-30T15:23:31.829Z,23.74
2022-09-30T15:26:02.218Z,23.36
2022-09-30T15:28:30.502Z,22.94
2022-09-30T15:30:59.851Z,22.92
2022-09-30T15:33:31.719Z,23.48
2022-09-30T15:36:05.709Z,22.31
2022-09-30T15:38:35.867Z,21.84
2022-09-30T15:41:08.507Z,22.29
2022-09-30T15:43:40.675Z,21.20
2022-09-30T15:46:21.399Z,18.90
2022-09-30T15:48:50.051Z,18.28
2022-09-30T15:51:30.202Z,17.61
2022-09-30T15:54:00.347Z,17.12
2022-09-30T15:56:36.083Z,16.80
2022-09-30T15:59:06.725Z,16.60
2022-09-30T16:01:39.978Z,16.22
2022-09-30T16:04:15.145Z,16.21
2022-09-30T16:06:50.478Z,16.20
2022-09-30T16:09:37.359Z,16.09
2022-09-30T16:12:09.930Z,16.01
2022-09-30T16:14:45.195Z,15.95
2022-09-30T16:17:19.430Z,15.86
2022-09-30T16:19:53.143Z,15.76
2022-09-30T16:22:36.549Z,15.72
2022-09-30T16:25:16.716Z,15.72
2022-09-30T16:27:46.103Z,15.60
2022-09-30T16:30:15.504Z,15.55
2022-09-30T16:32:47.934Z,15.47
2022-09-30T16:35:19.220Z,15.39
2022-09-30T16:37:48.350Z,15.30
2022-09-30T16:40:22.971Z,15.15
2022-09-30T16:42:54.715Z,14.98
2022-09-30T16:45:23.936Z,15.02
2022-09-30T16:47:51.815Z,14.89
2022-09-30T16:50:26.654Z,14.74
2022-09-30T16:52:54.549Z,14.67
2022-09-30T16:55:22.532Z,14.52
2022-09-30T16:57:50.363Z,14.44
2022-09-30T17:00:19.814Z,14.40
2022-09-30T17:02:48.909Z,14.32
2022-09-30T17:05:19.570Z,14.29
2022-09-30T17:07:48.463Z,14.01
2022-09-30T17:10:21.263Z,13.96
2022-09-30T17:12:50.179Z,13.65
2022-09-30T17:15:19.975Z,13.45
2022-09-30T17:17:48.837Z,13.66
2022-09-30T17:20:16.948Z,13.42
2022-09-30T17:22:46.404Z,13.08
2022-09-30T17:25:14.896Z,12.85
2022-09-30T17:27:43.208Z,12.66
2022-09-30T17:30:11.981Z,12.89
2022-09-30T17:32:42.304Z,12.90
2022-09-30T17:35:10.546Z,13.05
2022-09-30T17:37:41.318Z,13.09
2022-09-30T17:40:29.566Z,12.92
2022-09-30T17:43:11.167Z,13.22
2022-09-30T17:45:40.812Z,13.07
2022-09-30T17:48:10.690Z,13.07
2022-09-30T17:50:39.648Z,13.14
2022-09-30T17:53:07.568Z,12.79
2022-09-30T17:55:36.104Z,12.76
2022-09-30T17:58:03.951Z,12.51
2022-09-30T18:00:32.314Z,12.53
2022-09-30T18:03:00.483Z,12.29
2022-09-30T18:05:30.004Z,12.09
2022-09-30T18:07:58.226Z,11.86
2022-09-30T18:10:28.403Z,11.90
2022-09-30T18:12:56.611Z,11.70
2022-09-30T18:15:24.469Z,11.68
2022-09-30T18:17:52.393Z,11.88
2022-09-30T18:20:23.340Z,11.74
2022-09-30T18:22:54.671Z,11.52
2022-09-30T18:25:23.014Z,11.55
2022-09-30T18:27:53.231Z,11.63
2022-09-30T18:30:21.753Z,11.78
2022-09-30T18:32:50.485Z,11.77
2022-09-30T18:35:20.349Z,11.72
2022-09-30T18:37:49.695Z,11.63
2022-09-30T18:40:19.848Z,11.54
2022-09-30T18:42:48.639Z,11.28
2022-09-30T18:45:16.908Z,11.14
2022-09-30T18:47:45.760Z,10.99
2022-09-30T18:50:17.856Z,10.99
2022-09-30T18:52:45.702Z,11.19
2022-09-30T18:55:13.533Z,11.32
2022-09-30T18:57:43.127Z,11.34
2022-09-30T19:00:12.262Z,11.45
2022-09-30T19:02:41.015Z,11.55
2022-09-30T19:05:09.528Z,11.44
2022-09-30T19:07:38.533Z,11.46
2022-09-30T19:10:07.404Z,11.14
2022-09-30T19:12:35.764Z,10.80
2022-09-30T19:15:05.852Z,10.79
2022-09-30T19:17:33.912Z,10.67
2022-09-30T19:20:02.015Z,10.48
2022-09-30T19:22:30.022Z,10.22
2022-09-30T19:24:57.812Z,10.03
2022-09-30T19:27:26.229Z,9.75
2022-09-30T19:29:59.137Z,9.66
2022-09-30T19:32:34.336Z,9.57
2022-09-30T19:35:06.403Z,9.61
2022-09-30T19:37:34.994Z,9.66
2022-09-30T19:40:15.994Z,9.59
2022-09-30T19:42:49.045Z,9.41
2022-09-30T19:45:18.838Z,9.47
2022-09-30T19:47:49.942Z,9.44
2022-09-30T19:50:17.862Z,9.51
2022-09-30T19:52:55.962Z,9.50
2022-09-30T19:55:25.087Z,9.50
2022-09-30T19:57:52.854Z,9.38
2022-09-30T20:00:20.591Z,9.38
2022-09-30T20:02:50.522Z,9.32
2022-09-30T20:05:18.628Z,9.49
2022-09-30T20:07:46.419Z,9.68
2022-09-30T20:10:14.386Z,9.92
2022-09-30T20:12:43.365Z,10.09
2022-09-30T20:15:29.241Z,10.28
2022-09-30T20:17:58.416Z,10.85
2022-09-30T20:20:42.731Z,10.83
2022-09-30T20:23:10.504Z,11.10
2022-09-30T20:25:38.523Z,11.25
2022-09-30T20:28:07.114Z,11.31
2022-09-30T20:30:38.703Z,11.39
2022-09-30T20:33:08.217Z,11.55
2022-09-30T20:35:36.801Z,11.52
2022-09-30T20:38:05.195Z,11.42
2022-09-30T20:40:34.827Z,11.27
2022-09-30T20:43:04.029Z,11.19
2022-09-30T20:45:31.822Z,10.81
2022-09-30T20:47:59.715Z,10.42
2022-09-30T20:50:38.378Z,10.14
2022-09-30T20:53:09.273Z,10.15
2022-09-30T20:55:39.270Z,10.03
2022-09-30T20:58:09.212Z,10.15
2022-09-30T21:00:39.622Z,10.02
2022-09-30T21:03:09.019Z,10.21
2022-09-30T21:05:38.654Z,10.52
2022-09-30T21:08:07.233Z,10.48
2022-09-30T21:10:36.850Z,10.69
2022-09-30T21:13:10.389Z,10.85
2022-09-30T21:15:38.461Z,10.86
2022-09-30T21:18:06.794Z,10.90
2022-09-30T21:20:34.856Z,10.71
2022-09-30T21:23:04.188Z,10.74
2022-09-30T21:25:32.428Z,10.75
2022-09-30T21:28:00.372Z,10.77
2022-09-30T21:30:28.926Z,10.71
2022-09-30T21:32:56.668Z,10.51
2022-09-30T21:35:24.473Z,10.47
2022-09-30T21:37:52.183Z,10.44
2022-09-30T21:40:21.380Z,10.34
2022-09-30T21:42:49.124Z,10.27
2022-09-30T21:45:18.264Z,10.14
2022-09-30T21:47:46.080Z,10.35
2022-09-30T21:50:13.893Z,10.36
2022-09-30T21:52:42.177Z,10.26
2022-09-30T21:55:11.709Z,10.27
2022-09-30T21:57:40.798Z,10.18
2022-09-30T22:00:09.691Z,10.24
2022-09-30T22:02:37.407Z,10.27
2022-09-30T22:05:06.126Z,10.24
2022-09-30T22:07:33.929Z,10.24
2022-09-30T22:10:01.814Z,10.18
2022-09-30T22:12:33.540Z,10.14
2022-09-30T22:15:02.692Z,10.17
2022-09-30T22:17:30.482Z,10.11
2022-09-30T22:19:58.330Z,10.01
2022-09-30T22:22:27.433Z,10.02
2022-09-30T22:24:56.954Z,10.09
2022-09-30T22:27:24.837Z,9.83
2022-09-30T22:29:52.601Z,9.87
2022-09-30T22:32:21.763Z,9.71
2022-09-30T22:35:07.344Z,9.80
2022-09-30T22:37:53.776Z,9.80
2022-09-30T22:40:23.741Z,9.78
2022-09-30T22:42:53.012Z,9.68
2022-09-30T22:45:20.819Z,9.60
2022-09-30T22:47:50.009Z,9.26
2022-09-30T22:50:19.584Z,9.02
2022-09-30T22:52:48.407Z,8.90
2022-09-30T22:55:16.459Z,8.76
2022-09-30T22:57:44.265Z,8.67
2022-09-30T23:00:13.324Z,8.49
2022-09-30T23:02:41.127Z,8.47
2022-09-30T23:05:10.340Z,8.44
2022-09-30T23:07:38.194Z,8.36
2022-09-30T23:10:07.454Z,8.24
2022-09-30T23:12:35.398Z,8.12
2022-09-30T23:15:03.217Z,8.09
2022-09-30T23:17:35.629Z,7.89
2022-09-30T23:20:03.397Z,7.78
2022-09-30T23:22:32.602Z,7.71
2022-09-30T23:25:02.027Z,7.72
2022-09-30T23:27:30.153Z,7.68
2022-09-30T23:29:57.882Z,7.63
2022-09-30T23:32:25.636Z,7.57
2022-09-30T23:34:53.777Z,7.73
2022-09-30T23:37:21.692Z,7.68
2022-09-30T23:39:50.811Z,7.65
2022-09-30T23:42:18.822Z,7.57
2022-09-30T23:44:46.566Z,7.68
2022-09-30T23:47:23.012Z,7.51
2022-09-30T23:49:50.870Z,7.51
2022-09-30T23:52:18.803Z,7.57
2022-09-30T23:54:46.812Z,7.44
2022-09-30T23:57:15.901Z,7.59
2022-09-30T23:59:43.636Z,7.59
